Terminal Aerodrome Forecast
Issued by NWS Quad Cities IA IL

Home | Current Version | Previous Version | Text Only | Print | Product List | Glossary On
Versions: 1 2 3 4 5 6 7 8 9 10 11 12 13 14 15 16 17 18 19 20 21 22 23 24 25 26
000
FTUS43 KDVN 291323 AAA
TAFDBQ
TAF AMD
KDBQ 291323Z 2913/3012 00000KT 6SM BR BKN008
      TEMPO 2913/2914 6SM BR SCT008 BKN015
     FM291500 30005KT P6SM SCT040
     FM292000 32009KT P6SM VCTS BKN050CB
     FM300200 26005KT P6SM VCSH BKN040
     FM300500 30006KT P6SM SCT040=

USA.gov is the U.S. government's official web portal to all federal, state and local government web resources and services.